sensor_id;sensor_type;location;lat;lon;timestamp;P1;durP1;ratioP1;P2;durP2;ratioP2
32236;SDS011;18726;44.732;10.550;2022-10-14T00:00:07;17.40;;;15.50;;
32236;SDS011;18726;44.732;10.550;2022-10-14T00:03:14;14.98;;;13.40;;
32236;SDS011;18726;44.732;10.550;2022-10-14T00:06:19;18.88;;;14.50;;
32236;SDS011;18726;44.732;10.550;2022-10-14T00:09:25;18.88;;;16.85;;
32236;SDS011;18726;44.732;10.550;2022-10-14T00:12:29;24.08;;;17.73;;
32236;SDS011;18726;44.732;10.550;2022-10-14T00:15:36;24.05;;;19.02;;
32236;SDS011;18726;44.732;10.550;2022-10-14T00:18:42;16.40;;;14.32;;
32236;SDS011;18726;44.732;10.550;2022-10-14T00:21:46;23.23;;;18.27;;
32236;SDS011;18726;44.732;10.550;2022-10-14T00:24:50;30.02;;;20.95;;
32236;SDS011;18726;44.732;10.550;2022-10-14T00:27:54;23.85;;;17.27;;
32236;SDS011;18726;44.732;10.550;2022-10-14T00:30:58;23.02;;;19.55;;
32236;SDS011;18726;44.732;10.550;2022-10-14T00:34:03;16.08;;;14.45;;
32236;SDS011;18726;44.732;10.550;2022-10-14T00:37:07;15.63;;;14.02;;
32236;SDS011;18726;44.732;10.550;2022-10-14T00:40:11;18.60;;;13.90;;
32236;SDS011;18726;44.732;10.550;2022-10-14T00:43:15;16.73;;;14.20;;
32236;SDS011;18726;44.732;10.550;2022-10-14T00:46:20;18.15;;;15.45;;
32236;SDS011;18726;44.732;10.550;2022-10-14T00:49:29;19.00;;;15.60;;
32236;SDS011;18726;44.732;10.550;2022-10-14T00:52:36;20.27;;;14.40;;
32236;SDS011;18726;44.732;10.550;2022-10-14T00:55:40;16.30;;;14.15;;
32236;SDS011;18726;44.732;10.550;2022-10-14T00:58:47;25.20;;;15.95;;
32236;SDS011;18726;44.732;10.550;2022-10-14T01:01:51;17.05;;;14.82;;
32236;SDS011;18726;44.732;10.550;2022-10-14T01:04:55;18.90;;;15.18;;
32236;SDS011;18726;44.732;10.550;2022-10-14T01:08:08;18.05;;;15.95;;
32236;SDS011;18726;44.732;10.550;2022-10-14T01:14:43;15.50;;;13.90;;
32236;SDS011;18726;44.732;10.550;2022-10-14T01:21:35;22.92;;;15.85;;
32236;SDS011;18726;44.732;10.550;2022-10-14T01:28:54;18.55;;;15.77;;
32236;SDS011;18726;44.732;10.550;2022-10-14T01:32:05;17.80;;;15.85;;
32236;SDS011;18726;44.732;10.550;2022-10-14T01:38:35;20.45;;;16.65;;
32236;SDS011;18726;44.732;10.550;2022-10-14T01:41:45;22.30;;;18.50;;
32236;SDS011;18726;44.732;10.550;2022-10-14T01:44:55;23.52;;;20.98;;
32236;SDS011;18726;44.732;10.550;2022-10-14T01:48:03;26.13;;;21.52;;
32236;SDS011;18726;44.732;10.550;2022-10-14T01:51:10;27.55;;;21.63;;
32236;SDS011;18726;44.732;10.550;2022-10-14T01:54:20;29.23;;;21.23;;
32236;SDS011;18726;44.732;10.550;2022-10-14T01:57:35;22.08;;;19.67;;
32236;SDS011;18726;44.732;10.550;2022-10-14T02:00:46;16.42;;;14.63;;
32236;SDS011;18726;44.732;10.550;2022-10-14T02:03:51;28.25;;;22.02;;
32236;SDS011;18726;44.732;10.550;2022-10-14T02:07:05;34.75;;;23.25;;
32236;SDS011;18726;44.732;10.550;2022-10-14T02:20:32;19.02;;;16.85;;
32236;SDS011;18726;44.732;10.550;2022-10-14T02:23:45;19.63;;;15.55;;
32236;SDS011;18726;44.732;10.550;2022-10-14T02:26:55;19.88;;;15.63;;
32236;SDS011;18726;44.732;10.550;2022-10-14T02:30:04;22.38;;;17.10;;
32236;SDS011;18726;44.732;10.550;2022-10-14T02:33:11;31.67;;;21.23;;
32236;SDS011;18726;44.732;10.550;2022-10-14T02:36:19;22.35;;;17.95;;
32236;SDS011;18726;44.732;10.550;2022-10-14T02:39:33;20.70;;;15.48;;
32236;SDS011;18726;44.732;10.550;2022-10-14T02:42:42;17.52;;;15.30;;
32236;SDS011;18726;44.732;10.550;2022-10-14T02:45:47;17.58;;;14.88;;
32236;SDS011;18726;44.732;10.550;2022-10-14T02:49:00;18.52;;;14.88;;
32236;SDS011;18726;44.732;10.550;2022-10-14T02:52:05;19.27;;;15.90;;
32236;SDS011;18726;44.732;10.550;2022-10-14T02:55:10;15.50;;;12.95;;
32236;SDS011;18726;44.732;10.550;2022-10-14T02:58:15;21.65;;;17.10;;
32236;SDS011;18726;44.732;10.550;2022-10-14T03:01:19;19.17;;;16.35;;
32236;SDS011;18726;44.732;10.550;2022-10-14T03:04:22;16.15;;;14.38;;
32236;SDS011;18726;44.732;10.550;2022-10-14T03:07:29;16.60;;;14.80;;
32236;SDS011;18726;44.732;10.550;2022-10-14T03:10:39;16.33;;;14.63;;
32236;SDS011;18726;44.732;10.550;2022-10-14T03:13:47;16.77;;;13.52;;
32236;SDS011;18726;44.732;10.550;2022-10-14T03:16:52;15.40;;;13.65;;
32236;SDS011;18726;44.732;10.550;2022-10-14T03:20:01;16.77;;;12.93;;
32236;SDS011;18726;44.732;10.550;2022-10-14T03:23:13;14.70;;;12.93;;
32236;SDS011;18726;44.732;10.550;2022-10-14T03:26:21;24.33;;;19.10;;
32236;SDS011;18726;44.732;10.550;2022-10-14T03:29:33;30.40;;;22.77;;
32236;SDS011;18726;44.732;10.550;2022-10-14T03:32:49;29.35;;;22.80;;
32236;SDS011;18726;44.732;10.550;2022-10-14T03:36:15;27.67;;;21.23;;
32236;SDS011;18726;44.732;10.550;2022-10-14T03:39:28;30.60;;;23.85;;
32236;SDS011;18726;44.732;10.550;2022-10-14T03:42:40;34.05;;;25.08;;
32236;SDS011;18726;44.732;10.550;2022-10-14T03:45:44;30.30;;;24.83;;
32236;SDS011;18726;44.732;10.550;2022-10-14T03:48:49;32.38;;;24.00;;
32236;SDS011;18726;44.732;10.550;2022-10-14T03:51:53;34.47;;;25.70;;
32236;SDS011;18726;44.732;10.550;2022-10-14T03:55:01;29.40;;;23.48;;
32236;SDS011;18726;44.732;10.550;2022-10-14T03:58:06;32.90;;;24.70;;
32236;SDS011;18726;44.732;10.550;2022-10-14T04:01:11;31.83;;;23.80;;
32236;SDS011;18726;44.732;10.550;2022-10-14T04:04:35;19.15;;;17.20;;
32236;SDS011;18726;44.732;10.550;2022-10-14T04:07:39;29.40;;;22.38;;
32236;SDS011;18726;44.732;10.550;2022-10-14T04:10:42;27.77;;;22.95;;
32236;SDS011;18726;44.732;10.550;2022-10-14T04:13:49;33.13;;;24.65;;
32236;SDS011;18726;44.732;10.550;2022-10-14T04:16:53;32.10;;;24.00;;
32236;SDS011;18726;44.732;10.550;2022-10-14T04:19:56;25.00;;;21.98;;
32236;SDS011;18726;44.732;10.550;2022-10-14T04:23:00;34.40;;;23.77;;
32236;SDS011;18726;44.732;10.550;2022-10-14T04:26:06;26.77;;;19.98;;
32236;SDS011;18726;44.732;10.550;2022-10-14T04:29:12;31.13;;;23.30;;
32236;SDS011;18726;44.732;10.550;2022-10-14T04:32:27;28.98;;;20.77;;
32236;SDS011;18726;44.732;10.550;2022-10-14T04:35:30;23.15;;;17.15;;
32236;SDS011;18726;44.732;10.550;2022-10-14T04:38:34;16.92;;;14.88;;
32236;SDS011;18726;44.732;10.550;2022-10-14T04:41:42;29.73;;;21.70;;
32236;SDS011;18726;44.732;10.550;2022-10-14T04:44:49;29.05;;;20.60;;
32236;SDS011;18726;44.732;10.550;2022-10-14T04:47:56;31.52;;;24.23;;
32236;SDS011;18726;44.732;10.550;2022-10-14T04:51:01;26.40;;;22.15;;
32236;SDS011;18726;44.732;10.550;2022-10-14T04:54:17;32.28;;;24.65;;
32236;SDS011;18726;44.732;10.550;2022-10-14T04:57:32;30.30;;;20.95;;
32236;SDS011;18726;44.732;10.550;2022-10-14T05:00:35;26.48;;;23.73;;
32236;SDS011;18726;44.732;10.550;2022-10-14T05:06:54;22.88;;;16.38;;
32236;SDS011;18726;44.732;10.550;2022-10-14T05:09:58;23.58;;;19.30;;
32236;SDS011;18726;44.732;10.550;2022-10-14T05:13:12;21.20;;;17.90;;
32236;SDS011;18726;44.732;10.550;2022-10-14T05:16:29;16.50;;;14.80;;
32236;SDS011;18726;44.732;10.550;2022-10-14T05:19:32;17.63;;;14.10;;
32236;SDS011;18726;44.732;10.550;2022-10-14T05:22:36;16.13;;;13.40;;
32236;SDS011;18726;44.732;10.550;2022-10-14T05:25:41;22.67;;;17.35;;
32236;SDS011;18726;44.732;10.550;2022-10-14T05:28:45;22.77;;;19.80;;
32236;SDS011;18726;44.732;10.550;2022-10-14T05:31:49;26.95;;;18.92;;
32236;SDS011;18726;44.732;10.550;2022-10-14T05:35:01;20.63;;;17.65;;
32236;SDS011;18726;44.732;10.550;2022-10-14T05:38:13;16.08;;;14.38;;
32236;SDS011;18726;44.732;10.550;2022-10-14T05:41:19;14.30;;;12.95;;
32236;SDS011;18726;44.732;10.550;2022-10-14T05:44:23;16.65;;;14.23;;
32236;SDS011;18726;44.732;10.550;2022-10-14T05:47:26;17.67;;;15.32;;
32236;SDS011;18726;44.732;10.550;2022-10-14T05:50:35;18.55;;;16.63;;
32236;SDS011;18726;44.732;10.550;2022-10-14T05:53:44;14.35;;;12.90;;
32236;SDS011;18726;44.732;10.550;2022-10-14T05:56:52;15.07;;;13.43;;
32236;SDS011;18726;44.732;10.550;2022-10-14T05:59:56;14.75;;;13.25;;
32236;SDS011;18726;44.732;10.550;2022-10-14T06:03:00;18.95;;;13.20;;
32236;SDS011;18726;44.732;10.550;2022-10-14T06:06:04;15.50;;;13.80;;
32236;SDS011;18726;44.732;10.550;2022-10-14T06:09:08;20.45;;;13.20;;
32236;SDS011;18726;44.732;10.550;2022-10-14T06:12:13;14.48;;;12.07;;
32236;SDS011;18726;44.732;10.550;2022-10-14T06:15:16;15.60;;;13.50;;
32236;SDS011;18726;44.732;10.550;2022-10-14T06:18:20;13.48;;;12.07;;
32236;SDS011;18726;44.732;10.550;2022-10-14T06:21:24;15.85;;;12.65;;
32236;SDS011;18726;44.732;10.550;2022-10-14T06:24:28;19.17;;;13.27;;
32236;SDS011;18726;44.732;10.550;2022-10-14T06:27:32;16.13;;;12.23;;
32236;SDS011;18726;44.732;10.550;2022-10-14T06:30:35;12.82;;;10.40;;
32236;SDS011;18726;44.732;10.550;2022-10-14T06:33:39;18.35;;;10.18;;
32236;SDS011;18726;44.732;10.550;2022-10-14T06:36:43;11.70;;;9.75;;
32236;SDS011;18726;44.732;10.550;2022-10-14T06:39:47;12.57;;;9.75;;
32236;SDS011;18726;44.732;10.550;2022-10-14T06:42:51;11.93;;;7.45;;
32236;SDS011;18726;44.732;10.550;2022-10-14T06:45:56;11.43;;;9.43;;
32236;SDS011;18726;44.732;10.550;2022-10-14T06:49:00;15.45;;;8.65;;
32236;SDS011;18726;44.732;10.550;2022-10-14T06:52:04;14.82;;;10.18;;
32236;SDS011;18726;44.732;10.550;2022-10-14T06:55:08;9.65;;;8.68;;
32236;SDS011;18726;44.732;10.550;2022-10-14T06:58:12;11.73;;;8.23;;
32236;SDS011;18726;44.732;10.550;2022-10-14T07:01:15;11.65;;;8.20;;
32236;SDS011;18726;44.732;10.550;2022-10-14T07:04:19;13.07;;;8.20;;
32236;SDS011;18726;44.732;10.550;2022-10-14T07:07:23;13.00;;;8.77;;
32236;SDS011;18726;44.732;10.550;2022-10-14T07:10:26;9.57;;;8.68;;
32236;SDS011;18726;44.732;10.550;2022-10-14T07:13:30;17.42;;;9.05;;
32236;SDS011;18726;44.732;10.550;2022-10-14T07:16:34;11.60;;;8.55;;
32236;SDS011;18726;44.732;10.550;2022-10-14T07:19:38;15.48;;;8.38;;
32236;SDS011;18726;44.732;10.550;2022-10-14T07:22:41;14.95;;;8.63;;
32236;SDS011;18726;44.732;10.550;2022-10-14T07:25:45;13.60;;;7.97;;
32236;SDS011;18726;44.732;10.550;2022-10-14T07:28:49;8.63;;;7.43;;
32236;SDS011;18726;44.732;10.550;2022-10-14T07:31:53;15.88;;;9.45;;
32236;SDS011;18726;44.732;10.550;2022-10-14T07:34:57;13.63;;;9.07;;
32236;SDS011;18726;44.732;10.550;2022-10-14T07:38:01;11.43;;;8.55;;
32236;SDS011;18726;44.732;10.550;2022-10-14T07:41:06;14.07;;;9.55;;
32236;SDS011;18726;44.732;10.550;2022-10-14T07:44:19;15.35;;;9.07;;
32236;SDS011;18726;44.732;10.550;2022-10-14T07:47:23;12.75;;;8.25;;
32236;SDS011;18726;44.732;10.550;2022-10-14T07:50:27;11.25;;;8.68;;
32236;SDS011;18726;44.732;10.550;2022-10-14T07:53:30;14.57;;;9.35;;
32236;SDS011;18726;44.732;10.550;2022-10-14T07:56:35;10.98;;;9.82;;
32236;SDS011;18726;44.732;10.550;2022-10-14T07:59:43;13.52;;;11.85;;
32236;SDS011;18726;44.732;10.550;2022-10-14T08:02:46;12.57;;;11.25;;
32236;SDS011;18726;44.732;10.550;2022-10-14T08:05:56;13.43;;;11.82;;
32236;SDS011;18726;44.732;10.550;2022-10-14T08:12:06;11.90;;;10.13;;
32236;SDS011;18726;44.732;10.550;2022-10-14T08:15:10;18.63;;;11.90;;
32236;SDS011;18726;44.732;10.550;2022-10-14T08:18:13;14.70;;;12.05;;
32236;SDS011;18726;44.732;10.550;2022-10-14T08:21:17;12.93;;;10.65;;
32236;SDS011;18726;44.732;10.550;2022-10-14T08:24:21;14.52;;;10.57;;
32236;SDS011;18726;44.732;10.550;2022-10-14T08:27:25;13.60;;;11.43;;
32236;SDS011;18726;44.732;10.550;2022-10-14T08:30:29;16.55;;;11.77;;
32236;SDS011;18726;44.732;10.550;2022-10-14T08:33:33;12.05;;;10.88;;
32236;SDS011;18726;44.732;10.550;2022-10-14T08:36:36;15.18;;;12.30;;
32236;SDS011;18726;44.732;10.550;2022-10-14T08:39:40;20.80;;;13.52;;
32236;SDS011;18726;44.732;10.550;2022-10-14T08:42:48;17.88;;;14.50;;
32236;SDS011;18726;44.732;10.550;2022-10-14T08:45:59;14.85;;;13.48;;
32236;SDS011;18726;44.732;10.550;2022-10-14T08:55:40;15.10;;;11.63;;
32236;SDS011;18726;44.732;10.550;2022-10-14T08:58:56;15.23;;;12.10;;
32236;SDS011;18726;44.732;10.550;2022-10-14T09:05:27;20.20;;;18.10;;
32236;SDS011;18726;44.732;10.550;2022-10-14T09:08:36;18.63;;;14.93;;
32236;SDS011;18726;44.732;10.550;2022-10-14T09:11:53;18.13;;;15.02;;
32236;SDS011;18726;44.732;10.550;2022-10-14T09:18:44;21.60;;;18.85;;
32236;SDS011;18726;44.732;10.550;2022-10-14T09:22:00;20.52;;;17.42;;
32236;SDS011;18726;44.732;10.550;2022-10-14T09:25:07;19.02;;;17.05;;
32236;SDS011;18726;44.732;10.550;2022-10-14T09:28:16;20.52;;;18.48;;
32236;SDS011;18726;44.732;10.550;2022-10-14T09:31:21;28.60;;;21.52;;
32236;SDS011;18726;44.732;10.550;2022-10-14T09:34:30;21.38;;;17.92;;
32236;SDS011;18726;44.732;10.550;2022-10-14T09:37:40;27.63;;;19.88;;
32236;SDS011;18726;44.732;10.550;2022-10-14T09:40:45;29.40;;;23.35;;
32236;SDS011;18726;44.732;10.550;2022-10-14T09:47:17;22.83;;;18.73;;
32236;SDS011;18726;44.732;10.550;2022-10-14T09:50:22;23.55;;;20.75;;
32236;SDS011;18726;44.732;10.550;2022-10-14T09:53:30;26.58;;;19.08;;
32236;SDS011;18726;44.732;10.550;2022-10-14T09:56:37;28.48;;;22.08;;
32236;SDS011;18726;44.732;10.550;2022-10-14T09:59:55;22.38;;;20.02;;
32236;SDS011;18726;44.732;10.550;2022-10-14T10:03:03;20.05;;;16.83;;
32236;SDS011;18726;44.732;10.550;2022-10-14T10:06:09;25.42;;;19.75;;
32236;SDS011;18726;44.732;10.550;2022-10-14T10:09:17;26.40;;;23.40;;
32236;SDS011;18726;44.732;10.550;2022-10-14T10:12:29;25.50;;;22.55;;
32236;SDS011;18726;44.732;10.550;2022-10-14T10:15:34;25.20;;;21.42;;
32236;SDS011;18726;44.732;10.550;2022-10-14T10:18:38;25.75;;;22.27;;
32236;SDS011;18726;44.732;10.550;2022-10-14T10:21:42;30.48;;;22.95;;
32236;SDS011;18726;44.732;10.550;2022-10-14T10:24:45;30.48;;;22.15;;
32236;SDS011;18726;44.732;10.550;2022-10-14T10:27:49;31.30;;;21.70;;
32236;SDS011;18726;44.732;10.550;2022-10-14T10:31:04;26.05;;;22.48;;
32236;SDS011;18726;44.732;10.550;2022-10-14T10:34:32;30.15;;;22.75;;
32236;SDS011;18726;44.732;10.550;2022-10-14T10:37:55;26.67;;;22.75;;
32236;SDS011;18726;44.732;10.550;2022-10-14T10:44:45;25.90;;;22.42;;
32236;SDS011;18726;44.732;10.550;2022-10-14T10:57:52;28.25;;;21.42;;
32236;SDS011;18726;44.732;10.550;2022-10-14T11:01:22;37.03;;;26.15;;
32236;SDS011;18726;44.732;10.550;2022-10-14T11:04:44;28.20;;;23.75;;
32236;SDS011;18726;44.732;10.550;2022-10-14T11:08:17;32.15;;;21.27;;
32236;SDS011;18726;44.732;10.550;2022-10-14T11:15:46;23.63;;;18.88;;
32236;SDS011;18726;44.732;10.550;2022-10-14T11:19:09;23.52;;;21.15;;
32236;SDS011;18726;44.732;10.550;2022-10-14T11:25:53;29.77;;;21.20;;
32236;SDS011;18726;44.732;10.550;2022-10-14T11:29:09;31.05;;;26.60;;
32236;SDS011;18726;44.732;10.550;2022-10-14T11:45:48;27.90;;;22.90;;
32236;SDS011;18726;44.732;10.550;2022-10-14T11:48:57;27.48;;;23.60;;
32236;SDS011;18726;44.732;10.550;2022-10-14T11:52:06;34.55;;;30.77;;
32236;SDS011;18726;44.732;10.550;2022-10-14T11:55:15;26.83;;;22.23;;
32236;SDS011;18726;44.732;10.550;2022-10-14T11:58:22;43.00;;;30.00;;
32236;SDS011;18726;44.732;10.550;2022-10-14T12:01:30;41.75;;;30.25;;
32236;SDS011;18726;44.732;10.550;2022-10-14T12:04:36;27.58;;;22.83;;
32236;SDS011;18726;44.732;10.550;2022-10-14T12:08:32;26.88;;;23.70;;
32236;SDS011;18726;44.732;10.550;2022-10-14T12:14:31;28.38;;;23.20;;
32236;SDS011;18726;44.732;10.550;2022-10-14T12:17:43;27.85;;;22.80;;
32236;SDS011;18726;44.732;10.550;2022-10-14T12:21:13;28.67;;;25.38;;
32236;SDS011;18726;44.732;10.550;2022-10-14T12:24:23;33.95;;;26.27;;
32236;SDS011;18726;44.732;10.550;2022-10-14T12:27:30;27.70;;;22.45;;
32236;SDS011;18726;44.732;10.550;2022-10-14T12:38:00;36.63;;;28.70;;
32236;SDS011;18726;44.732;10.550;2022-10-14T12:40:39;25.60;;;22.60;;
32236;SDS011;18726;44.732;10.550;2022-10-14T12:43:44;30.58;;;24.85;;
32236;SDS011;18726;44.732;10.550;2022-10-14T12:47:14;22.42;;;20.05;;
32236;SDS011;18726;44.732;10.550;2022-10-14T12:50:26;22.35;;;16.90;;
32236;SDS011;18726;44.732;10.550;2022-10-14T12:53:33;24.55;;;18.88;;
32236;SDS011;18726;44.732;10.550;2022-10-14T12:56:42;21.10;;;17.08;;
32236;SDS011;18726;44.732;10.550;2022-10-14T12:59:56;27.98;;;21.60;;
32236;SDS011;18726;44.732;10.550;2022-10-14T13:03:03;22.67;;;18.23;;
32236;SDS011;18726;44.732;10.550;2022-10-14T13:09:34;31.38;;;25.58;;
32236;SDS011;18726;44.732;10.550;2022-10-14T13:12:38;29.90;;;24.90;;
32236;SDS011;18726;44.732;10.550;2022-10-14T13:15:48;32.15;;;24.77;;
32236;SDS011;18726;44.732;10.550;2022-10-14T13:18:55;28.90;;;20.13;;
32236;SDS011;18726;44.732;10.550;2022-10-14T13:25:32;34.78;;;26.17;;
32236;SDS011;18726;44.732;10.550;2022-10-14T13:35:54;22.92;;;19.23;;
32236;SDS011;18726;44.732;10.550;2022-10-14T13:39:07;30.67;;;23.80;;
32236;SDS011;18726;44.732;10.550;2022-10-14T13:42:13;30.70;;;25.55;;
32236;SDS011;18726;44.732;10.550;2022-10-14T13:45:31;23.10;;;18.27;;
32236;SDS011;18726;44.732;10.550;2022-10-14T13:48:44;33.33;;;25.20;;
32236;SDS011;18726;44.732;10.550;2022-10-14T13:51:58;25.50;;;20.35;;
32236;SDS011;18726;44.732;10.550;2022-10-14T13:58:12;25.48;;;18.35;;
32236;SDS011;18726;44.732;10.550;2022-10-14T14:01:20;23.63;;;17.52;;
32236;SDS011;18726;44.732;10.550;2022-10-14T14:04:28;22.60;;;19.77;;
32236;SDS011;18726;44.732;10.550;2022-10-14T14:07:37;18.80;;;16.83;;
32236;SDS011;18726;44.732;10.550;2022-10-14T14:10:48;22.73;;;19.40;;
32236;SDS011;18726;44.732;10.550;2022-10-14T14:14:05;21.23;;;17.10;;
32236;SDS011;18726;44.732;10.550;2022-10-14T14:17:18;24.13;;;16.35;;
32236;SDS011;18726;44.732;10.550;2022-10-14T14:20:26;22.05;;;18.05;;
32236;SDS011;18726;44.732;10.550;2022-10-14T14:23:36;30.92;;;23.85;;
32236;SDS011;18726;44.732;10.550;2022-10-14T14:26:52;24.80;;;18.27;;
32236;SDS011;18726;44.732;10.550;2022-10-14T14:29:59;19.83;;;16.33;;
32236;SDS011;18726;44.732;10.550;2022-10-14T14:33:12;21.95;;;17.42;;
32236;SDS011;18726;44.732;10.550;2022-10-14T14:36:18;27.35;;;21.15;;
32236;SDS011;18726;44.732;10.550;2022-10-14T14:39:29;24.73;;;18.10;;
32236;SDS011;18726;44.732;10.550;2022-10-14T14:42:34;19.98;;;15.43;;
32236;SDS011;18726;44.732;10.550;2022-10-14T14:45:41;26.27;;;20.85;;
32236;SDS011;18726;44.732;10.550;2022-10-14T14:48:50;30.58;;;20.92;;
32236;SDS011;18726;44.732;10.550;2022-10-14T14:51:56;25.95;;;20.70;;
32236;SDS011;18726;44.732;10.550;2022-10-14T14:55:01;30.00;;;21.02;;
32236;SDS011;18726;44.732;10.550;2022-10-14T14:58:05;31.77;;;22.00;;
32236;SDS011;18726;44.732;10.550;2022-10-14T15:01:23;23.98;;;18.55;;
32236;SDS011;18726;44.732;10.550;2022-10-14T15:04:32;26.05;;;19.63;;
32236;SDS011;18726;44.732;10.550;2022-10-14T15:07:41;23.83;;;20.55;;
32236;SDS011;18726;44.732;10.550;2022-10-14T15:10:46;28.02;;;21.23;;
32236;SDS011;18726;44.732;10.550;2022-10-14T15:13:54;27.55;;;21.80;;
32236;SDS011;18726;44.732;10.550;2022-10-14T15:16:59;26.33;;;20.75;;
32236;SDS011;18726;44.732;10.550;2022-10-14T15:26:42;21.13;;;17.30;;
32236;SDS011;18726;44.732;10.550;2022-10-14T15:30:14;27.75;;;22.85;;
32236;SDS011;18726;44.732;10.550;2022-10-14T15:33:33;22.17;;;17.50;;
32236;SDS011;18726;44.732;10.550;2022-10-14T15:36:38;27.08;;;21.95;;
32236;SDS011;18726;44.732;10.550;2022-10-14T15:39:42;24.65;;;21.20;;
32236;SDS011;18726;44.732;10.550;2022-10-14T15:42:46;19.92;;;17.10;;
32236;SDS011;18726;44.732;10.550;2022-10-14T15:45:51;21.70;;;16.80;;
32236;SDS011;18726;44.732;10.550;2022-10-14T15:49:24;24.50;;;15.50;;
32236;SDS011;18726;44.732;10.550;2022-10-14T15:52:30;19.77;;;13.93;;
32236;SDS011;18726;44.732;10.550;2022-10-14T15:55:34;19.30;;;14.00;;
32236;SDS011;18726;44.732;10.550;2022-10-14T15:58:38;20.73;;;17.95;;
32236;SDS011;18726;44.732;10.550;2022-10-14T16:01:42;20.33;;;16.05;;
32236;SDS011;18726;44.732;10.550;2022-10-14T16:04:48;21.65;;;15.20;;
32236;SDS011;18726;44.732;10.550;2022-10-14T16:07:53;16.60;;;13.73;;
32236;SDS011;18726;44.732;10.550;2022-10-14T16:10:58;23.55;;;15.38;;
32236;SDS011;18726;44.732;10.550;2022-10-14T16:14:02;20.20;;;15.77;;
32236;SDS011;18726;44.732;10.550;2022-10-14T16:17:07;18.25;;;14.82;;
32236;SDS011;18726;44.732;10.550;2022-10-14T16:20:11;16.15;;;14.43;;
32236;SDS011;18726;44.732;10.550;2022-10-14T16:23:16;19.05;;;15.70;;
32236;SDS011;18726;44.732;10.550;2022-10-14T16:26:21;21.23;;;14.02;;
32236;SDS011;18726;44.732;10.550;2022-10-14T16:29:24;17.63;;;14.25;;
32236;SDS011;18726;44.732;10.550;2022-10-14T16:32:28;16.20;;;12.68;;
32236;SDS011;18726;44.732;10.550;2022-10-14T16:35:32;20.67;;;15.68;;
32236;SDS011;18726;44.732;10.550;2022-10-14T16:38:36;18.08;;;14.82;;
32236;SDS011;18726;44.732;10.550;2022-10-14T16:41:39;14.05;;;12.55;;
32236;SDS011;18726;44.732;10.550;2022-10-14T16:44:43;23.10;;;14.60;;
32236;SDS011;18726;44.732;10.550;2022-10-14T16:47:47;15.60;;;13.25;;
32236;SDS011;18726;44.732;10.550;2022-10-14T16:50:51;18.15;;;16.25;;
32236;SDS011;18726;44.732;10.550;2022-10-14T16:53:56;20.55;;;16.25;;
32236;SDS011;18726;44.732;10.550;2022-10-14T16:57:00;19.38;;;16.33;;
32236;SDS011;18726;44.732;10.550;2022-10-14T17:00:07;19.30;;;15.75;;
32236;SDS011;18726;44.732;10.550;2022-10-14T17:03:12;28.75;;;23.27;;
32236;SDS011;18726;44.732;10.550;2022-10-14T17:06:15;24.60;;;20.30;;
32236;SDS011;18726;44.732;10.550;2022-10-14T17:09:19;23.73;;;16.92;;
32236;SDS011;18726;44.732;10.550;2022-10-14T17:12:24;21.75;;;16.20;;
32236;SDS011;18726;44.732;10.550;2022-10-14T17:15:33;24.48;;;17.17;;
32236;SDS011;18726;44.732;10.550;2022-10-14T17:18:38;19.20;;;16.63;;
32236;SDS011;18726;44.732;10.550;2022-10-14T17:21:42;17.10;;;15.05;;
32236;SDS011;18726;44.732;10.550;2022-10-14T17:24:46;21.95;;;16.98;;
32236;SDS011;18726;44.732;10.550;2022-10-14T17:27:52;22.05;;;17.98;;
32236;SDS011;18726;44.732;10.550;2022-10-14T17:30:56;21.00;;;18.75;;
32236;SDS011;18726;44.732;10.550;2022-10-14T17:34:00;21.60;;;17.88;;
32236;SDS011;18726;44.732;10.550;2022-10-14T17:37:04;18.00;;;15.80;;
32236;SDS011;18726;44.732;10.550;2022-10-14T17:40:08;24.02;;;18.58;;
32236;SDS011;18726;44.732;10.550;2022-10-14T17:43:14;25.30;;;18.17;;
32236;SDS011;18726;44.732;10.550;2022-10-14T17:46:19;28.42;;;20.38;;
32236;SDS011;18726;44.732;10.550;2022-10-14T17:49:26;27.52;;;21.48;;
32236;SDS011;18726;44.732;10.550;2022-10-14T17:52:33;24.42;;;21.77;;
32236;SDS011;18726;44.732;10.550;2022-10-14T17:55:37;28.77;;;22.42;;
32236;SDS011;18726;44.732;10.550;2022-10-14T17:58:42;29.17;;;22.73;;
32236;SDS011;18726;44.732;10.550;2022-10-14T18:01:45;31.02;;;23.20;;
32236;SDS011;18726;44.732;10.550;2022-10-14T18:04:50;32.53;;;24.40;;
32236;SDS011;18726;44.732;10.550;2022-10-14T18:07:53;29.42;;;20.52;;
32236;SDS011;18726;44.732;10.550;2022-10-14T18:11:00;24.55;;;18.58;;
32236;SDS011;18726;44.732;10.550;2022-10-14T18:14:05;26.20;;;19.80;;
32236;SDS011;18726;44.732;10.550;2022-10-14T18:17:11;34.28;;;23.98;;
32236;SDS011;18726;44.732;10.550;2022-10-14T18:20:15;41.60;;;27.85;;
32236;SDS011;18726;44.732;10.550;2022-10-14T18:23:18;42.75;;;33.03;;
32236;SDS011;18726;44.732;10.550;2022-10-14T18:26:23;54.45;;;35.03;;
32236;SDS011;18726;44.732;10.550;2022-10-14T18:29:26;41.58;;;34.25;;
32236;SDS011;18726;44.732;10.550;2022-10-14T18:32:30;52.10;;;35.45;;
32236;SDS011;18726;44.732;10.550;2022-10-14T18:35:33;49.85;;;38.60;;
32236;SDS011;18726;44.732;10.550;2022-10-14T18:38:37;48.70;;;37.67;;
32236;SDS011;18726;44.732;10.550;2022-10-14T18:41:42;54.33;;;34.28;;
32236;SDS011;18726;44.732;10.550;2022-10-14T18:44:46;49.75;;;37.45;;
32236;SDS011;18726;44.732;10.550;2022-10-14T18:47:49;50.17;;;36.90;;
32236;SDS011;18726;44.732;10.550;2022-10-14T18:50:57;46.63;;;34.35;;
32236;SDS011;18726;44.732;10.550;2022-10-14T18:54:03;32.30;;;25.42;;
32236;SDS011;18726;44.732;10.550;2022-10-14T18:57:13;46.57;;;31.67;;
32236;SDS011;18726;44.732;10.550;2022-10-14T19:00:17;32.17;;;27.25;;
32236;SDS011;18726;44.732;10.550;2022-10-14T19:03:21;29.85;;;23.13;;
32236;SDS011;18726;44.732;10.550;2022-10-14T19:06:25;43.35;;;31.20;;
32236;SDS011;18726;44.732;10.550;2022-10-14T19:09:29;38.28;;;29.35;;
32236;SDS011;18726;44.732;10.550;2022-10-14T19:12:34;33.20;;;25.05;;
32236;SDS011;18726;44.732;10.550;2022-10-14T19:15:44;46.97;;;34.35;;
32236;SDS011;18726;44.732;10.550;2022-10-14T19:18:53;46.50;;;35.97;;
32236;SDS011;18726;44.732;10.550;2022-10-14T19:21:58;46.08;;;35.88;;
32236;SDS011;18726;44.732;10.550;2022-10-14T19:25:03;49.75;;;34.50;;
32236;SDS011;18726;44.732;10.550;2022-10-14T19:28:07;59.03;;;37.10;;
32236;SDS011;18726;44.732;10.550;2022-10-14T19:31:13;43.83;;;32.28;;
32236;SDS011;18726;44.732;10.550;2022-10-14T19:34:19;39.42;;;27.88;;
32236;SDS011;18726;44.732;10.550;2022-10-14T19:37:23;43.70;;;34.22;;
32236;SDS011;18726;44.732;10.550;2022-10-14T19:40:26;42.22;;;32.50;;
32236;SDS011;18726;44.732;10.550;2022-10-14T19:43:30;46.22;;;33.60;;
32236;SDS011;18726;44.732;10.550;2022-10-14T19:46:34;55.05;;;35.13;;
32236;SDS011;18726;44.732;10.550;2022-10-14T19:49:38;46.20;;;33.10;;
32236;SDS011;18726;44.732;10.550;2022-10-14T19:52:42;47.97;;;32.40;;
32236;SDS011;18726;44.732;10.550;2022-10-14T19:55:45;40.80;;;31.20;;
32236;SDS011;18726;44.732;10.550;2022-10-14T19:58:50;49.38;;;35.20;;